Back to Top

Language: 

My Weather Underground Personal Weather Station Historical Data with Graphs...

Delerius Weather Station Historical Data
Daily Summary for March 6, 2017 Units:  Both    English   Metric
« Previous Day
Next Day »
Daily Weekly Monthly Yearly Custom
  High: Low: Average:
Temperature: 51.9 °F /  11.1 °C 39.0 °F /  3.9 °C 44.2 °F /  6.8 °C
Dew Point: 41.9 °F /  5.5 °C 34.6 °F /  1.4 °C 38.3 °F /  3.5 °C
Humidity: 95 % 56 % 81 %
Wind Speed: 13.0 mph /  20.9 km/h - 7.1 mph /  11.4 km/h
Wind Gust: 20.0 mph /  32.2 km/h - -
Wind:- - WNW
Pressure: 29.88 in /  1011.7 hPa 29.44 in /  996.8 hPa -
Precipitation: 0.01 in /  0.25 mm    
Historical Graphs
 
 
Tabular Data for March 6, 2017
Time Temperature Dew Point Pressure Wind Wind Speed Wind Gust Humidity Rainfall Rate (Hourly) solar Conditions
00:00 40.8 °F /  4.9 °C 39.5 °F /  4.2 °C 29.44 in /  996.8 hPa NW 4.0 mph /  6.4 km/h 16.0 mph /  25.7 km/h 95 % 0.00 in /  0 mm 0 W/m2
00:05 40.9 °F /  4.9 °C 39.6 °F /  4.2 °C 29.44 in /  996.8 hPa NW 4.0 mph /  6.4 km/h 16.0 mph /  25.7 km/h 95 % 0.00 in /  0 mm 0 W/m2
00:15 41.1 °F /  5.1 °C 39.8 °F /  4.3 °C 29.45 in /  997.2 hPa North 4.0 mph /  6.4 km/h 5.0 mph /  8 km/h 95 % 0.00 in /  0 mm 0 W/m2
00:25 41.2 °F /  5.1 °C 39.9 °F /  4.4 °C 29.45 in /  997.2 hPa WNW 5.0 mph /  8 km/h 6.0 mph /  9.7 km/h 95 % 0.00 in /  0 mm 0 W/m2
00:30 41.3 °F /  5.2 °C 40.0 °F /  4.4 °C 29.45 in /  997.2 hPa NW 6.0 mph /  9.7 km/h 7.0 mph /  11.3 km/h 95 % 0.00 in /  0 mm 0 W/m2
00:35 41.4 °F /  5.2 °C 40.1 °F /  4.5 °C 29.45 in /  997.2 hPa NW 6.0 mph /  9.7 km/h 7.0 mph /  11.3 km/h 95 % 0.00 in /  0 mm 0 W/m2
00:40 41.5 °F /  5.3 °C 39.9 °F /  4.4 °C 29.45 in /  997.2 hPa NW 5.0 mph /  8 km/h 6.0 mph /  9.7 km/h 94 % 0.00 in /  0 mm 0 W/m2
00:45 41.6 °F /  5.3 °C 40.0 °F /  4.4 °C 29.46 in /  997.5 hPa NW 5.0 mph /  8 km/h 6.0 mph /  9.7 km/h 94 % 0.00 in /  0 mm 0 W/m2
00:55 41.6 °F /  5.3 °C 40.0 °F /  4.4 °C 29.46 in /  997.5 hPa NW 5.0 mph /  8 km/h 5.0 mph /  8 km/h 94 % 0.00 in /  0 mm 0 W/m2
01:00 41.6 °F /  5.3 °C 40.0 °F /  4.4 °C 29.46 in /  997.5 hPa NW 5.0 mph /  8 km/h 5.0 mph /  8 km/h 94 % 0.00 in /  0 mm 0 W/m2
01:05 41.6 °F /  5.3 °C 40.0 °F /  4.4 °C 29.46 in /  997.5 hPa West 5.0 mph /  8 km/h 8.0 mph /  12.9 km/h 94 % 0.00 in /  0 mm 0 W/m2
01:10 41.6 °F /  5.3 °C 39.7 °F /  4.3 °C 29.46 in /  997.5 hPa WNW 6.0 mph /  9.7 km/h 8.0 mph /  12.9 km/h 93 % 0.00 in /  0 mm 0 W/m2
01:20 41.6 °F /  5.3 °C 39.4 °F /  4.1 °C 29.46 in /  997.5 hPa WNW 7.0 mph /  11.3 km/h 11.0 mph /  17.7 km/h 92 % 0.00 in /  0 mm 0 W/m2
01:30 41.6 °F /  5.3 °C 39.2 °F /  4 °C 29.46 in /  997.5 hPa West 8.0 mph /  12.9 km/h 10.0 mph /  16.1 km/h 91 % 0.00 in /  0 mm 0 W/m2
01:35 41.7 °F /  5.4 °C 39.3 °F /  4.1 °C 29.46 in /  997.5 hPa WNW 8.0 mph /  12.9 km/h 10.0 mph /  16.1 km/h 91 % 0.00 in /  0 mm 0 W/m2
01:40 41.7 °F /  5.4 °C 39.3 °F /  4.1 °C 29.46 in /  997.5 hPa NNW 8.0 mph /  12.9 km/h 8.0 mph /  12.9 km/h 91 % 0.00 in /  0 mm 0 W/m2
01:45 41.6 °F /  5.3 °C 39.2 °F /  4 °C 29.46 in /  997.5 hPa WNW 7.0 mph /  11.3 km/h 8.0 mph /  12.9 km/h 91 % 0.00 in /  0 mm 0 W/m2
01:50 41.6 °F /  5.3 °C 39.2 °F /  4 °C 29.46 in /  997.5 hPa WNW 7.0 mph /  11.3 km/h 9.0 mph /  14.5 km/h 91 % 0.00 in /  0 mm 0 W/m2
01:55 41.6 °F /  5.3 °C 39.2 °F /  4 °C 29.46 in /  997.5 hPa WNW 7.0 mph /  11.3 km/h 9.0 mph /  14.5 km/h 91 % 0.00 in /  0 mm 0 W/m2
02:05 41.6 °F /  5.3 °C 39.2 °F /  4 °C 29.46 in /  997.5 hPa WNW 8.0 mph /  12.9 km/h 9.0 mph /  14.5 km/h 91 % 0.00 in /  0 mm 0 W/m2
02:10 41.7 °F /  5.4 °C 39.3 °F /  4.1 °C 29.46 in /  997.5 hPa NW 8.0 mph /  12.9 km/h 9.0 mph /  14.5 km/h 91 % 0.00 in /  0 mm 0 W/m2
02:15 41.7 °F /  5.4 °C 39.3 °F /  4.1 °C 29.46 in /  997.5 hPa WNW 7.0 mph /  11.3 km/h 9.0 mph /  14.5 km/h 91 % 0.00 in /  0 mm 0 W/m2
02:20 41.9 °F /  5.5 °C 39.5 °F /  4.2 °C 29.46 in /  997.5 hPa WNW 7.0 mph /  11.3 km/h 8.0 mph /  12.9 km/h 91 % 0.00 in /  0 mm 0 W/m2
02:25 41.9 °F /  5.5 °C 39.5 °F /  4.2 °C 29.46 in /  997.5 hPa NW 6.0 mph /  9.7 km/h 8.0 mph /  12.9 km/h 91 % 0.00 in /  0 mm 0 W/m2
02:35 42.0 °F /  5.6 °C 39.6 °F /  4.2 °C 29.46 in /  997.5 hPa NW 7.0 mph /  11.3 km/h 8.0 mph /  12.9 km/h 91 % 0.00 in /  0 mm 0 W/m2
02:40 42.0 °F /  5.6 °C 39.6 °F /  4.2 °C 29.46 in /  997.5 hPa WNW 7.0 mph /  11.3 km/h 12.0 mph /  19.3 km/h 91 % 0.00 in /  0 mm 0 W/m2
02:45 41.9 °F /  5.5 °C 39.5 °F /  4.2 °C 29.46 in /  997.5 hPa WNW 8.0 mph /  12.9 km/h 12.0 mph /  19.3 km/h 91 % 0.00 in /  0 mm 0 W/m2
02:55 41.7 °F /  5.4 °C 39.3 °F /  4.1 °C 29.46 in /  997.5 hPa NW 7.0 mph /  11.3 km/h 12.0 mph /  19.3 km/h 91 % 0.00 in /  0 mm 0 W/m2
03:00 41.6 °F /  5.3 °C 39.2 °F /  4 °C 29.46 in /  997.5 hPa West 8.0 mph /  12.9 km/h 8.0 mph /  12.9 km/h 91 % 0.00 in /  0 mm 0 W/m2
03:10 41.4 °F /  5.2 °C 39.0 °F /  3.9 °C 29.46 in /  997.5 hPa WNW 7.0 mph /  11.3 km/h 8.0 mph /  12.9 km/h 91 % 0.00 in /  0 mm 0 W/m2
03:15 41.3 °F /  5.2 °C 38.9 °F /  3.8 °C 29.46 in /  997.5 hPa WNW 7.0 mph /  11.3 km/h 8.0 mph /  12.9 km/h 91 % 0.00 in /  0 mm 0 W/m2
03:20 41.1 °F /  5.1 °C 38.7 °F /  3.7 °C 29.46 in /  997.5 hPa WNW 7.0 mph /  11.3 km/h 7.0 mph /  11.3 km/h 91 % 0.00 in /  0 mm 0 W/m2
03:25 41.0 °F /  5 °C 38.6 °F /  3.7 °C 29.46 in /  997.5 hPa WNW 7.0 mph /  11.3 km/h 10.0 mph /  16.1 km/h 91 % 0.00 in /  0 mm 0 W/m2
03:30 40.9 °F /  4.9 °C 38.8 °F /  3.8 °C 29.47 in /  997.9 hPa WNW 7.0 mph /  11.3 km/h 8.0 mph /  12.9 km/h 92 % 0.00 in /  0 mm 0 W/m2
03:35 40.9 °F /  4.9 °C 38.8 °F /  3.8 °C 29.47 in /  997.9 hPa NW 8.0 mph /  12.9 km/h 9.0 mph /  14.5 km/h 92 % 0.00 in /  0 mm 0 W/m2
03:45 41.2 °F /  5.1 °C 39.3 °F /  4.1 °C 29.47 in /  997.9 hPa WNW 8.0 mph /  12.9 km/h 11.0 mph /  17.7 km/h 93 % 0.00 in /  0 mm 0 W/m2
03:50 41.3 °F /  5.2 °C 39.4 °F /  4.1 °C 29.47 in /  997.9 hPa West 8.0 mph /  12.9 km/h 13.0 mph /  20.9 km/h 93 % 0.00 in /  0 mm 0 W/m2
03:55 41.5 °F /  5.3 °C 39.3 °F /  4.1 °C 29.48 in /  998.2 hPa WNW 8.0 mph /  12.9 km/h 13.0 mph /  20.9 km/h 92 % 0.00 in /  0 mm 0 W/m2
04:00 41.5 °F /  5.3 °C 39.3 °F /  4.1 °C 29.48 in /  998.2 hPa West 8.0 mph /  12.9 km/h 8.0 mph /  12.9 km/h 92 % 0.00 in /  0 mm 0 W/m2
04:05 41.6 °F /  5.3 °C 39.4 °F /  4.1 °C 29.48 in /  998.2 hPa West 8.0 mph /  12.9 km/h 8.0 mph /  12.9 km/h 92 % 0.00 in /  0 mm 0 W/m2
04:15 41.7 °F /  5.4 °C 39.3 °F /  4.1 °C 29.48 in /  998.2 hPa WNW 9.0 mph /  14.5 km/h 10.0 mph /  16.1 km/h 91 % 0.00 in /  0 mm 0 W/m2
04:20 41.9 °F /  5.5 °C 39.5 °F /  4.2 °C 29.48 in /  998.2 hPa WNW 11.0 mph /  17.7 km/h 11.0 mph /  17.7 km/h 91 % 0.00 in /  0 mm 0 W/m2
04:30 41.9 °F /  5.5 °C 39.5 °F /  4.2 °C 29.48 in /  998.2 hPa WNW 9.0 mph /  14.5 km/h 9.0 mph /  14.5 km/h 91 % 0.00 in /  0 mm 0 W/m2
04:35 41.9 °F /  5.5 °C 39.7 °F /  4.3 °C 29.48 in /  998.2 hPa WNW 9.0 mph /  14.5 km/h 9.0 mph /  14.5 km/h 92 % 0.00 in /  0 mm 0 W/m2
04:40 41.8 °F /  5.4 °C 39.6 °F /  4.2 °C 29.48 in /  998.2 hPa WNW 8.0 mph /  12.9 km/h 8.0 mph /  12.9 km/h 92 % 0.00 in /  0 mm 0 W/m2
04:50 41.7 °F /  5.4 °C 39.5 °F /  4.2 °C 29.48 in /  998.2 hPa WNW 7.0 mph /  11.3 km/h 9.0 mph /  14.5 km/h 92 % 0.00 in /  0 mm 0 W/m2
04:55 41.7 °F /  5.4 °C 39.8 °F /  4.3 °C 29.48 in /  998.2 hPa WNW 7.0 mph /  11.3 km/h 9.0 mph /  14.5 km/h 93 % 0.00 in /  0 mm 0 W/m2
05:00 41.6 °F /  5.3 °C 39.7 °F /  4.3 °C 29.48 in /  998.2 hPa West 7.0 mph /  11.3 km/h 7.0 mph /  11.3 km/h 93 % 0.00 in /  0 mm 0 W/m2
05:05 41.6 °F /  5.3 °C 39.7 °F /  4.3 °C 29.48 in /  998.2 hPa WNW 6.0 mph /  9.7 km/h 8.0 mph /  12.9 km/h 93 % 0.00 in /  0 mm 0 W/m2
05:10 41.5 °F /  5.3 °C 39.6 °F /  4.2 °C 29.48 in /  998.2 hPa WNW 5.0 mph /  8 km/h 8.0 mph /  12.9 km/h 93 % 0.00 in /  0 mm 0 W/m2
05:15 41.4 °F /  5.2 °C 39.5 °F /  4.2 °C 29.48 in /  998.2 hPa WNW 5.0 mph /  8 km/h 8.0 mph /  12.9 km/h 93 % 0.00 in /  0 mm 0 W/m2
05:25 41.1 °F /  5.1 °C 39.2 °F /  4 °C 29.48 in /  998.2 hPa WNW 5.0 mph /  8 km/h 8.0 mph /  12.9 km/h 93 % 0.00 in /  0 mm 0 W/m2
05:30 41.0 °F /  5 °C 39.1 °F /  3.9 °C 29.48 in /  998.2 hPa WNW 4.0 mph /  6.4 km/h 8.0 mph /  12.9 km/h 93 % 0.00 in /  0 mm 0 W/m2
05:35 40.8 °F /  4.9 °C 38.9 °F /  3.8 °C 29.48 in /  998.2 hPa WNW 4.0 mph /  6.4 km/h 8.0 mph /  12.9 km/h 93 % 0.00 in /  0 mm 0 W/m2
05:40 40.7 °F /  4.8 °C 38.8 °F /  3.8 °C 29.49 in /  998.5 hPa West 4.0 mph /  6.4 km/h 4.0 mph /  6.4 km/h 93 % 0.00 in /  0 mm 0 W/m2
05:45 40.5 °F /  4.7 °C 38.6 °F /  3.7 °C 29.49 in /  998.5 hPa West 3.0 mph /  4.8 km/h 8.0 mph /  12.9 km/h 93 % 0.00 in /  0 mm 0 W/m2
05:55 40.1 °F /  4.5 °C 38.2 °F /  3.4 °C 29.49 in /  998.5 hPa WNW 1.0 mph /  1.6 km/h 8.0 mph /  12.9 km/h 93 % 0.00 in /  0 mm 0 W/m2
06:00 40.0 °F /  4.4 °C 38.4 °F /  3.6 °C 29.49 in /  998.5 hPa WNW 1.0 mph /  1.6 km/h 8.0 mph /  12.9 km/h 94 % 0.00 in /  0 mm 0 W/m2
06:10 39.8 °F /  4.3 °C 38.2 °F /  3.4 °C 29.49 in /  998.5 hPa WNW 2.0 mph /  3.2 km/h 8.0 mph /  12.9 km/h 94 % 0.00 in /  0 mm 0 W/m2
06:15 39.8 °F /  4.3 °C 38.2 °F /  3.4 °C 29.49 in /  998.5 hPa WNW 3.0 mph /  4.8 km/h 8.0 mph /  12.9 km/h 94 % 0.00 in /  0 mm 0 W/m2
06:20 39.8 °F /  4.3 °C 38.2 °F /  3.4 °C 29.49 in /  998.5 hPa WNW 4.0 mph /  6.4 km/h 8.0 mph /  12.9 km/h 94 % 0.00 in /  0 mm 0 W/m2
06:30 39.7 °F /  4.3 °C 38.1 °F /  3.4 °C 29.49 in /  998.5 hPa WNW 5.0 mph /  8 km/h 8.0 mph /  12.9 km/h 94 % 0.00 in /  0 mm 0 W/m2
06:35 39.6 °F /  4.2 °C 38.0 °F /  3.3 °C 29.49 in /  998.5 hPa WNW 5.0 mph /  8 km/h 8.0 mph /  12.9 km/h 94 % 0.00 in /  0 mm 0 W/m2
06:40 39.6 °F /  4.2 °C 38.0 °F /  3.3 °C 29.49 in /  998.5 hPa WNW 5.0 mph /  8 km/h 5.0 mph /  8 km/h 94 % 0.00 in /  0 mm 0 W/m2
06:45 39.6 °F /  4.2 °C 38.0 °F /  3.3 °C 29.50 in /  998.9 hPa WNW 5.0 mph /  8 km/h 8.0 mph /  12.9 km/h 94 % 0.00 in /  0 mm 5 W/m2
06:50 39.4 °F /  4.1 °C 37.8 °F /  3.2 °C 29.50 in /  998.9 hPa WNW 5.0 mph /  8 km/h 5.0 mph /  8 km/h 94 % 0.00 in /  0 mm 7 W/m2
06:55 39.3 °F /  4.1 °C 37.7 °F /  3.2 °C 29.50 in /  998.9 hPa WNW 4.0 mph /  6.4 km/h 8.0 mph /  12.9 km/h 94 % 0.00 in /  0 mm 9 W/m2
07:05 39.1 °F /  3.9 °C 37.5 °F /  3.1 °C 29.50 in /  998.9 hPa West 2.0 mph /  3.2 km/h 8.0 mph /  12.9 km/h 94 % 0.00 in /  0 mm 21 W/m2
07:10 39.0 °F /  3.9 °C 37.4 °F /  3 °C 29.50 in /  998.9 hPa WNW 2.0 mph /  3.2 km/h 8.0 mph /  12.9 km/h 94 % 0.00 in /  0 mm 18 W/m2
07:15 39.0 °F /  3.9 °C 37.4 °F /  3 °C 29.50 in /  998.9 hPa West 3.0 mph /  4.8 km/h 8.0 mph /  12.9 km/h 94 % 0.00 in /  0 mm 30 W/m2
07:20 39.2 °F /  4 °C 37.9 °F /  3.3 °C 29.50 in /  998.9 hPa WNW 5.0 mph /  8 km/h 5.0 mph /  8 km/h 95 % 0.00 in /  0 mm 72 W/m2
07:25 39.5 °F /  4.2 °C 38.2 °F /  3.4 °C 29.50 in /  998.9 hPa NW 5.0 mph /  8 km/h 10.0 mph /  16.1 km/h 95 % 0.00 in /  0 mm 84 W/m2
07:35 40.0 °F /  4.4 °C 38.4 °F /  3.6 °C 29.50 in /  998.9 hPa WNW 6.0 mph /  9.7 km/h 10.0 mph /  16.1 km/h 94 % 0.00 in /  0 mm 58 W/m2
07:45 40.2 °F /  4.6 °C 38.6 °F /  3.7 °C 29.51 in /  999.2 hPa NW 5.0 mph /  8 km/h 9.0 mph /  14.5 km/h 94 % 0.00 in /  0 mm 86 W/m2
07:50 40.4 °F /  4.7 °C 38.8 °F /  3.8 °C 29.51 in /  999.2 hPa NW 6.0 mph /  9.7 km/h 8.0 mph /  12.9 km/h 94 % 0.00 in /  0 mm 141 W/m2
07:55 40.7 °F /  4.8 °C 38.8 °F /  3.8 °C 29.51 in /  999.2 hPa NW 7.0 mph /  11.3 km/h 8.0 mph /  12.9 km/h 93 % 0.00 in /  0 mm 153 W/m2
08:00 41.0 °F /  5 °C 39.1 °F /  3.9 °C 29.51 in /  999.2 hPa NNW 7.0 mph /  11.3 km/h 7.0 mph /  11.3 km/h 93 % 0.00 in /  0 mm 165 W/m2
08:10 42.0 °F /  5.6 °C 40.1 °F /  4.5 °C 29.51 in /  999.2 hPa NW 6.0 mph /  9.7 km/h 6.0 mph /  9.7 km/h 93 % 0.00 in /  0 mm 186 W/m2
08:15 42.3 °F /  5.7 °C 40.1 °F /  4.5 °C 29.51 in /  999.2 hPa NW 7.0 mph /  11.3 km/h 7.0 mph /  11.3 km/h 92 % 0.00 in /  0 mm 199 W/m2
08:20 42.6 °F /  5.9 °C 40.4 °F /  4.7 °C 29.52 in /  999.5 hPa NW 8.0 mph /  12.9 km/h 8.0 mph /  12.9 km/h 92 % 0.00 in /  0 mm 209 W/m2
08:25 42.9 °F /  6.1 °C 40.5 °F /  4.7 °C 29.52 in /  999.5 hPa NW 7.0 mph /  11.3 km/h 8.0 mph /  12.9 km/h 91 % 0.00 in /  0 mm 220 W/m2
08:30 43.2 °F /  6.2 °C 40.5 °F /  4.7 °C 29.52 in /  999.5 hPa NW 6.0 mph /  9.7 km/h 8.0 mph /  12.9 km/h 90 % 0.00 in /  0 mm 232 W/m2
08:35 43.4 °F /  6.3 °C 40.7 °F /  4.8 °C 29.52 in /  999.5 hPa NW 8.0 mph /  12.9 km/h 11.0 mph /  17.7 km/h 90 % 0.00 in /  0 mm 246 W/m2
08:45 43.8 °F /  6.6 °C 40.8 °F /  4.9 °C 29.53 in /  999.9 hPa WNW 9.0 mph /  14.5 km/h 9.0 mph /  14.5 km/h 89 % 0.00 in /  0 mm 271 W/m2
08:50 44.1 °F /  6.7 °C 41.1 °F /  5.1 °C 29.53 in /  999.9 hPa NW 8.0 mph /  12.9 km/h 8.0 mph /  12.9 km/h 89 % 0.00 in /  0 mm 281 W/m2
09:00 44.7 °F /  7.1 °C 41.4 °F /  5.2 °C 29.53 in /  999.9 hPa NW 8.0 mph /  12.9 km/h 8.0 mph /  12.9 km/h 88 % 0.00 in /  0 mm 306 W/m2
09:05 45.0 °F /  7.2 °C 41.7 °F /  5.4 °C 29.54 in /  1000.2 hPa WNW 8.0 mph /  12.9 km/h 13.0 mph /  20.9 km/h 88 % 0.00 in /  0 mm 318 W/m2
09:10 45.1 °F /  7.3 °C 41.5 °F /  5.3 °C 29.54 in /  1000.2 hPa WNW 10.0 mph /  16.1 km/h 13.0 mph /  20.9 km/h 87 % 0.00 in /  0 mm 329 W/m2
09:20 45.1 °F /  7.3 °C 41.2 °F /  5.1 °C 29.55 in /  1000.6 hPa WNW 11.0 mph /  17.7 km/h 13.0 mph /  20.9 km/h 86 % 0.00 in /  0 mm 350 W/m2
09:25 45.5 °F /  7.5 °C 41.6 °F /  5.3 °C 29.55 in /  1000.6 hPa West 9.0 mph /  14.5 km/h 13.0 mph /  20.9 km/h 86 % 0.00 in /  0 mm 360 W/m2
09:30 45.8 °F /  7.7 °C 41.5 °F /  5.3 °C 29.55 in /  1000.6 hPa WNW 9.0 mph /  14.5 km/h 9.0 mph /  14.5 km/h 85 % 0.00 in /  0 mm 378 W/m2
09:35 46.0 °F /  7.8 °C 41.4 °F /  5.2 °C 29.56 in /  1000.9 hPa WNW 9.0 mph /  14.5 km/h 11.0 mph /  17.7 km/h 84 % 0.00 in /  0 mm 410 W/m2
09:40 46.4 °F /  8 °C 41.8 °F /  5.4 °C 29.56 in /  1000.9 hPa West 10.0 mph /  16.1 km/h 10.0 mph /  16.1 km/h 84 % 0.00 in /  0 mm 471 W/m2
09:50 46.8 °F /  8.2 °C 41.3 °F /  5.2 °C 29.57 in /  1001.2 hPa WNW 9.0 mph /  14.5 km/h 10.0 mph /  16.1 km/h 81 % 0.00 in /  0 mm 171 W/m2
09:55 46.7 °F /  8.2 °C 41.5 °F /  5.3 °C 29.57 in /  1001.2 hPa NW 9.0 mph /  14.5 km/h 10.0 mph /  16.1 km/h 82 % 0.00 in /  0 mm 469 W/m2
10:00 47.1 °F /  8.4 °C 41.9 °F /  5.5 °C 29.57 in /  1001.2 hPa West 8.0 mph /  12.9 km/h 8.0 mph /  12.9 km/h 82 % 0.00 in /  0 mm 487 W/m2
10:05 47.4 °F /  8.6 °C 41.5 °F /  5.3 °C 29.57 in /  1001.2 hPa WNW 9.0 mph /  14.5 km/h 9.0 mph /  14.5 km/h 80 % 0.00 in /  0 mm 483 W/m2
10:10 47.7 °F /  8.7 °C 41.5 °F /  5.3 °C 29.57 in /  1001.2 hPa WNW 9.0 mph /  14.5 km/h 9.0 mph /  14.5 km/h 79 % 0.00 in /  0 mm 162 W/m2
10:20 47.9 °F /  8.8 °C 41.4 °F /  5.2 °C 29.58 in /  1001.6 hPa WNW 10.0 mph /  16.1 km/h 12.0 mph /  19.3 km/h 78 % 0.00 in /  0 mm 490 W/m2
10:25 48.0 °F /  8.9 °C 41.1 °F /  5.1 °C 29.58 in /  1001.6 hPa WNW 10.0 mph /  16.1 km/h 12.0 mph /  19.3 km/h 77 % 0.00 in /  0 mm 408 W/m2
10:35 48.7 °F /  9.3 °C 41.8 °F /  5.4 °C 29.58 in /  1001.6 hPa West 8.0 mph /  12.9 km/h 11.0 mph /  17.7 km/h 77 % 0.00 in /  0 mm 508 W/m2
10:40 49.0 °F /  9.4 °C 41.4 °F /  5.2 °C 29.58 in /  1001.6 hPa WNW 8.0 mph /  12.9 km/h 11.0 mph /  17.7 km/h 75 % 0.00 in /  0 mm 571 W/m2
10:45 49.3 °F /  9.6 °C 41.0 °F /  5 °C 29.58 in /  1001.6 hPa West 10.0 mph /  16.1 km/h 16.0 mph /  25.7 km/h 73 % 0.00 in /  0 mm 580 W/m2
10:50 49.6 °F /  9.8 °C 41.3 °F /  5.2 °C 29.58 in /  1001.6 hPa WNW 10.0 mph /  16.1 km/h 10.0 mph /  16.1 km/h 73 % 0.00 in /  0 mm 552 W/m2
11:00 49.4 °F /  9.7 °C 40.4 °F /  4.7 °C 29.59 in /  1001.9 hPa WNW 9.0 mph /  14.5 km/h 9.0 mph /  14.5 km/h 71 % 0.00 in /  0 mm 197 W/m2
11:05 49.1 °F /  9.5 °C 40.1 °F /  4.5 °C 29.59 in /  1001.9 hPa NW 9.0 mph /  14.5 km/h 9.0 mph /  14.5 km/h 71 % 0.00 in /  0 mm 274 W/m2
11:10 48.9 °F /  9.4 °C 40.3 °F /  4.6 °C 29.60 in /  1002.3 hPa WNW 9.0 mph /  14.5 km/h 11.0 mph /  17.7 km/h 72 % 0.00 in /  0 mm 301 W/m2
11:15 48.9 °F /  9.4 °C 40.3 °F /  4.6 °C 29.60 in /  1002.3 hPa NNW 10.0 mph /  16.1 km/h 11.0 mph /  17.7 km/h 72 % 0.00 in /  0 mm 146 W/m2
11:20 48.8 °F /  9.3 °C 39.8 °F /  4.3 °C 29.60 in /  1002.3 hPa WNW 10.0 mph /  16.1 km/h 10.0 mph /  16.1 km/h 71 % 0.00 in /  0 mm 107 W/m2
11:30 48.6 °F /  9.2 °C 40.0 °F /  4.4 °C 29.60 in /  1002.3 hPa NW 8.0 mph /  12.9 km/h 10.0 mph /  16.1 km/h 72 % 0.00 in /  0 mm 584 W/m2
11:35 49.0 °F /  9.4 °C 40.4 °F /  4.7 °C 29.60 in /  1002.3 hPa WNW 8.0 mph /  12.9 km/h 11.0 mph /  17.7 km/h 72 % 0.00 in /  0 mm 606 W/m2
11:40 49.5 °F /  9.7 °C 40.5 °F /  4.7 °C 29.60 in /  1002.3 hPa WNW 9.0 mph /  14.5 km/h 9.0 mph /  14.5 km/h 71 % 0.00 in /  0 mm 211 W/m2
11:45 49.8 °F /  9.9 °C 40.8 °F /  4.9 °C 29.60 in /  1002.3 hPa NW 9.0 mph /  14.5 km/h 14.0 mph /  22.5 km/h 71 % 0.00 in /  0 mm 740 W/m2
11:55 49.7 °F /  9.8 °C 40.3 °F /  4.6 °C 29.61 in /  1002.6 hPa West 9.0 mph /  14.5 km/h 10.0 mph /  16.1 km/h 70 % 0.00 in /  0 mm 260 W/m2
12:00 49.7 °F /  9.8 °C 39.9 °F /  4.4 °C 29.61 in /  1002.6 hPa WNW 8.0 mph /  12.9 km/h 11.0 mph /  17.7 km/h 69 % 0.00 in /  0 mm 218 W/m2
12:10 49.4 °F /  9.7 °C 40.0 °F /  4.4 °C 29.61 in /  1002.6 hPa WNW 9.0 mph /  14.5 km/h 9.0 mph /  14.5 km/h 70 % 0.00 in /  0 mm 214 W/m2
12:15 49.3 °F /  9.6 °C 39.9 °F /  4.4 °C 29.61 in /  1002.6 hPa NW 8.0 mph /  12.9 km/h 9.0 mph /  14.5 km/h 70 % 0.00 in /  0 mm 251 W/m2
12:20 49.6 °F /  9.8 °C 39.5 °F /  4.2 °C 29.61 in /  1002.6 hPa WNW 8.0 mph /  12.9 km/h 9.0 mph /  14.5 km/h 68 % 0.00 in /  0 mm 323 W/m2
12:25 49.9 °F /  9.9 °C 39.4 °F /  4.1 °C 29.62 in /  1002.9 hPa WNW 10.0 mph /  16.1 km/h 10.0 mph /  16.1 km/h 67 % 0.00 in /  0 mm 251 W/m2
12:30 49.9 °F /  9.9 °C 39.0 °F /  3.9 °C 29.62 in /  1002.9 hPa WNW 11.0 mph /  17.7 km/h 11.0 mph /  17.7 km/h 66 % 0.00 in /  0 mm 213 W/m2
12:40 50.1 °F /  10.1 °C 39.2 °F /  4 °C 29.62 in /  1002.9 hPa West 10.0 mph /  16.1 km/h 15.0 mph /  24.1 km/h 66 % 0.00 in /  0 mm 213 W/m2
12:45 50.2 °F /  10.1 °C 39.3 °F /  4.1 °C 29.62 in /  1002.9 hPa WNW 10.0 mph /  16.1 km/h 15.0 mph /  24.1 km/h 66 % 0.00 in /  0 mm 599 W/m2
12:50 50.6 °F /  10.3 °C 39.7 °F /  4.3 °C 29.62 in /  1002.9 hPa West 10.0 mph /  16.1 km/h 10.0 mph /  16.1 km/h 66 % 0.00 in /  0 mm 606 W/m2
12:55 50.8 °F /  10.4 °C 39.5 °F /  4.2 °C 29.63 in /  1003.3 hPa NW 11.0 mph /  17.7 km/h 12.0 mph /  19.3 km/h 65 % 0.00 in /  0 mm 645 W/m2
13:00 51.2 °F /  10.7 °C 39.8 °F /  4.3 °C 29.63 in /  1003.3 hPa WNW 12.0 mph /  19.3 km/h 16.0 mph /  25.7 km/h 65 % 0.00 in /  0 mm 628 W/m2
13:10 51.6 °F /  10.9 °C 39.8 °F /  4.3 °C 29.63 in /  1003.3 hPa WNW 10.0 mph /  16.1 km/h 10.0 mph /  16.1 km/h 64 % 0.00 in /  0 mm 615 W/m2
13:15 51.6 °F /  10.9 °C 39.4 °F /  4.1 °C 29.63 in /  1003.3 hPa West 11.0 mph /  17.7 km/h 11.0 mph /  17.7 km/h 63 % 0.00 in /  0 mm 603 W/m2
13:25 51.8 °F /  11 °C 38.8 °F /  3.8 °C 29.64 in /  1003.6 hPa NW 12.0 mph /  19.3 km/h 12.0 mph /  19.3 km/h 61 % 0.00 in /  0 mm 647 W/m2
13:30 51.9 °F /  11.1 °C 38.0 °F /  3.3 °C 29.64 in /  1003.6 hPa WNW 13.0 mph /  20.9 km/h 14.0 mph /  22.5 km/h 59 % 0.00 in /  0 mm 306 W/m2
13:35 51.7 °F /  10.9 °C 38.7 °F /  3.7 °C 29.64 in /  1003.6 hPa WNW 12.0 mph /  19.3 km/h 19.0 mph /  30.6 km/h 61 % 0.00 in /  0 mm 172 W/m2
13:45 51.6 °F /  10.9 °C 38.6 °F /  3.7 °C 29.64 in /  1003.6 hPa WNW 11.0 mph /  17.7 km/h 12.0 mph /  19.3 km/h 61 % 0.00 in /  0 mm 582 W/m2
13:50 51.8 °F /  11 °C 38.3 °F /  3.5 °C 29.65 in /  1003.9 hPa NW 10.0 mph /  16.1 km/h 12.0 mph /  19.3 km/h 60 % 0.00 in /  0 mm 165 W/m2
13:55 51.1 °F /  10.6 °C 37.7 °F /  3.2 °C 29.65 in /  1003.9 hPa NW 11.0 mph /  17.7 km/h 12.0 mph /  19.3 km/h 60 % 0.00 in /  0 mm 156 W/m2
14:00 50.6 °F /  10.3 °C 37.6 °F /  3.1 °C 29.65 in /  1003.9 hPa WNW 10.0 mph /  16.1 km/h 10.0 mph /  16.1 km/h 61 % 0.00 in /  0 mm 142 W/m2
14:05 50.3 °F /  10.2 °C 37.4 °F /  3 °C 29.65 in /  1003.9 hPa WNW 10.0 mph /  16.1 km/h 10.0 mph /  16.1 km/h 61 % 0.00 in /  0 mm 156 W/m2
14:10 50.0 °F /  10 °C 37.5 °F /  3.1 °C 29.65 in /  1003.9 hPa WNW 11.0 mph /  17.7 km/h 15.0 mph /  24.1 km/h 62 % 0.00 in /  0 mm 216 W/m2
14:20 49.9 °F /  9.9 °C 37.8 °F /  3.2 °C 29.65 in /  1003.9 hPa NW 10.0 mph /  16.1 km/h 10.0 mph /  16.1 km/h 63 % 0.00 in /  0 mm 227 W/m2
14:25 50.0 °F /  10 °C 37.9 °F /  3.3 °C 29.66 in /  1004.3 hPa WNW 10.0 mph /  16.1 km/h 12.0 mph /  19.3 km/h 63 % 0.00 in /  0 mm 176 W/m2
14:30 50.0 °F /  10 °C 37.5 °F /  3.1 °C 29.66 in /  1004.3 hPa WNW 9.0 mph /  14.5 km/h 11.0 mph /  17.7 km/h 62 % 0.00 in /  0 mm 260 W/m2
14:40 49.6 °F /  9.8 °C 36.7 °F /  2.6 °C 29.66 in /  1004.3 hPa WNW 11.0 mph /  17.7 km/h 11.0 mph /  17.7 km/h 61 % 0.00 in /  0 mm 53 W/m2
14:45 49.3 °F /  9.6 °C 37.2 °F /  2.9 °C 29.66 in /  1004.3 hPa WNW 10.0 mph /  16.1 km/h 11.0 mph /  17.7 km/h 63 % 0.00 in /  0 mm 399 W/m2
14:55 50.1 °F /  10.1 °C 37.2 °F /  2.9 °C 29.67 in /  1004.6 hPa WNW 10.0 mph /  16.1 km/h 10.0 mph /  16.1 km/h 61 % 0.00 in /  0 mm 422 W/m2
15:00 50.4 °F /  10.2 °C 37.0 °F /  2.8 °C 29.67 in /  1004.6 hPa NW 11.0 mph /  17.7 km/h 11.0 mph /  17.7 km/h 60 % 0.00 in /  0 mm 142 W/m2
15:05 50.5 °F /  10.3 °C 37.1 °F /  2.8 °C 29.67 in /  1004.6 hPa WNW 11.0 mph /  17.7 km/h 11.0 mph /  17.7 km/h 60 % 0.00 in /  0 mm 142 W/m2
15:10 50.6 °F /  10.3 °C 37.6 °F /  3.1 °C 29.67 in /  1004.6 hPa WNW 9.0 mph /  14.5 km/h 9.0 mph /  14.5 km/h 61 % 0.00 in /  0 mm 399 W/m2
15:15 50.9 °F /  10.5 °C 37.5 °F /  3.1 °C 29.67 in /  1004.6 hPa West 8.0 mph /  12.9 km/h 11.0 mph /  17.7 km/h 60 % 0.00 in /  0 mm 359 W/m2
15:25 51.1 °F /  10.6 °C 37.3 °F /  2.9 °C 29.67 in /  1004.6 hPa West 11.0 mph /  17.7 km/h 13.0 mph /  20.9 km/h 59 % 0.00 in /  0 mm 322 W/m2
15:30 51.0 °F /  10.6 °C 36.7 °F /  2.6 °C 29.68 in /  1005 hPa WNW 11.0 mph /  17.7 km/h 13.0 mph /  20.9 km/h 58 % 0.00 in /  0 mm 311 W/m2
15:35 50.9 °F /  10.5 °C 35.7 °F /  2.1 °C 29.68 in /  1005 hPa NW 12.0 mph /  19.3 km/h 13.0 mph /  20.9 km/h 56 % 0.00 in /  0 mm 302 W/m2
15:40 50.9 °F /  10.5 °C 37.1 °F /  2.8 °C 29.68 in /  1005 hPa WNW 11.0 mph /  17.7 km/h 20.0 mph /  32.2 km/h 59 % 0.00 in /  0 mm 330 W/m2
15:45 51.0 °F /  10.6 °C 37.2 °F /  2.9 °C 29.68 in /  1005 hPa NW 11.0 mph /  17.7 km/h 20.0 mph /  32.2 km/h 59 % 0.00 in /  0 mm 336 W/m2
15:55 50.9 °F /  10.5 °C 36.2 °F /  2.3 °C 29.69 in /  1005.3 hPa West 12.0 mph /  19.3 km/h 12.0 mph /  19.3 km/h 57 % 0.00 in /  0 mm 292 W/m2
16:05 50.6 °F /  10.3 °C 36.4 °F /  2.4 °C 29.69 in /  1005.3 hPa West 11.0 mph /  17.7 km/h 20.0 mph /  32.2 km/h 58 % 0.00 in /  0 mm 250 W/m2
16:10 50.2 °F /  10.1 °C 36.8 °F /  2.7 °C 29.69 in /  1005.3 hPa WNW 12.0 mph /  19.3 km/h 15.0 mph /  24.1 km/h 60 % 0.00 in /  0 mm 214 W/m2
16:15 49.9 °F /  9.9 °C 37.0 °F /  2.8 °C 29.69 in /  1005.3 hPa WNW 12.0 mph /  19.3 km/h 15.0 mph /  24.1 km/h 61 % 0.00 in /  0 mm 204 W/m2
16:20 49.7 °F /  9.8 °C 37.2 °F /  2.9 °C 29.70 in /  1005.6 hPa West 11.0 mph /  17.7 km/h 11.0 mph /  17.7 km/h 62 % 0.00 in /  0 mm 216 W/m2
16:25 49.5 °F /  9.7 °C 37.0 °F /  2.8 °C 29.70 in /  1005.6 hPa West 11.0 mph /  17.7 km/h 11.0 mph /  17.7 km/h 62 % 0.00 in /  0 mm 199 W/m2
16:35 49.3 °F /  9.6 °C 37.2 °F /  2.9 °C 29.70 in /  1005.6 hPa NW 9.0 mph /  14.5 km/h 11.0 mph /  17.7 km/h 63 % 0.00 in /  0 mm 151 W/m2
16:40 49.1 °F /  9.5 °C 37.0 °F /  2.8 °C 29.70 in /  1005.6 hPa West 9.0 mph /  14.5 km/h 9.0 mph /  14.5 km/h 63 % 0.00 in /  0 mm 134 W/m2
16:45 48.9 °F /  9.4 °C 36.9 °F /  2.7 °C 29.71 in /  1006 hPa WNW 10.0 mph /  16.1 km/h 10.0 mph /  16.1 km/h 63 % 0.00 in /  0 mm 46 W/m2
16:50 48.8 °F /  9.3 °C 37.2 °F /  2.9 °C 29.71 in /  1006 hPa WNW 9.0 mph /  14.5 km/h 9.0 mph /  14.5 km/h 64 % 0.00 in /  0 mm 44 W/m2
16:55 48.6 °F /  9.2 °C 37.0 °F /  2.8 °C 29.72 in /  1006.3 hPa NW 7.0 mph /  11.3 km/h 9.0 mph /  14.5 km/h 64 % 0.00 in /  0 mm 42 W/m2
17:05 48.2 °F /  9 °C 37.4 °F /  3 °C 29.72 in /  1006.3 hPa WNW 9.0 mph /  14.5 km/h 9.0 mph /  14.5 km/h 66 % 0.00 in /  0 mm 56 W/m2
17:10 48.2 °F /  9 °C 37.8 °F /  3.2 °C 29.72 in /  1006.3 hPa NW 7.0 mph /  11.3 km/h 7.0 mph /  11.3 km/h 67 % 0.00 in /  0 mm 44 W/m2
17:15 48.1 °F /  8.9 °C 37.7 °F /  3.2 °C 29.73 in /  1006.7 hPa WNW 5.0 mph /  8 km/h 8.0 mph /  12.9 km/h 67 % 0.00 in /  0 mm 32 W/m2
17:20 48.0 °F /  8.9 °C 37.9 °F /  3.3 °C 29.73 in /  1006.7 hPa WNW 4.0 mph /  6.4 km/h 8.0 mph /  12.9 km/h 68 % 0.00 in /  0 mm 25 W/m2
17:25 47.7 °F /  8.7 °C 37.7 °F /  3.2 °C 29.73 in /  1006.7 hPa West 4.0 mph /  6.4 km/h 8.0 mph /  12.9 km/h 68 % 0.00 in /  0 mm 18 W/m2
17:30 47.5 °F /  8.6 °C 37.5 °F /  3.1 °C 29.74 in /  1007 hPa NW 5.0 mph /  8 km/h 8.0 mph /  12.9 km/h 68 % 0.00 in /  0 mm 11 W/m2
17:40 46.9 °F /  8.3 °C 37.3 °F /  2.9 °C 29.75 in /  1007.3 hPa NW 2.0 mph /  3.2 km/h 2.0 mph /  3.2 km/h 69 % 0.00 in /  0 mm 7 W/m2
17:45 46.4 °F /  8 °C 36.8 °F /  2.7 °C 29.75 in /  1007.3 hPa NW 4.0 mph /  6.4 km/h 11.0 mph /  17.7 km/h 69 % 0.00 in /  0 mm 5 W/m2
17:50 46.1 °F /  7.8 °C 36.5 °F /  2.5 °C 29.75 in /  1007.3 hPa NW 6.0 mph /  9.7 km/h 8.0 mph /  12.9 km/h 69 % 0.00 in /  0 mm 5 W/m2
18:00 45.6 °F /  7.6 °C 36.0 °F /  2.2 °C 29.75 in /  1007.3 hPa WNW 6.0 mph /  9.7 km/h 6.0 mph /  9.7 km/h 69 % 0.00 in /  0 mm 0 W/m2
18:05 45.4 °F /  7.4 °C 36.5 °F /  2.5 °C 29.75 in /  1007.3 hPa WNW 4.0 mph /  6.4 km/h 8.0 mph /  12.9 km/h 71 % 0.00 in /  0 mm 0 W/m2
18:15 45.0 °F /  7.2 °C 36.2 °F /  2.3 °C 29.76 in /  1007.7 hPa Calm   8.0 mph /  12.9 km/h 71 % 0.00 in /  0 mm 0 W/m2
18:20 44.6 °F /  7 °C 36.1 °F /  2.3 °C 29.76 in /  1007.7 hPa Calm   8.0 mph /  12.9 km/h 72 % 0.00 in /  0 mm 0 W/m2
18:25 44.3 °F /  6.8 °C 36.2 °F /  2.3 °C 29.76 in /  1007.7 hPa Calm   8.0 mph /  12.9 km/h 73 % 0.00 in /  0 mm 0 W/m2
18:30 43.8 °F /  6.6 °C 36.0 °F /  2.2 °C 29.77 in /  1008 hPa WNW 3.0 mph /  4.8 km/h 8.0 mph /  12.9 km/h 74 % 0.00 in /  0 mm 0 W/m2
18:35 43.5 °F /  6.4 °C 36.1 °F /  2.3 °C 29.77 in /  1008 hPa WNW 5.0 mph /  8 km/h 8.0 mph /  12.9 km/h 75 % 0.00 in /  0 mm 0 W/m2
18:45 43.2 °F /  6.2 °C 36.1 °F /  2.3 °C 29.77 in /  1008 hPa WNW 6.0 mph /  9.7 km/h 9.0 mph /  14.5 km/h 76 % 0.00 in /  0 mm 0 W/m2
18:50 43.1 °F /  6.2 °C 36.4 °F /  2.4 °C 29.77 in /  1008 hPa WNW 6.0 mph /  9.7 km/h 12.0 mph /  19.3 km/h 77 % 0.00 in /  0 mm 0 W/m2
18:55 43.0 °F /  6.1 °C 36.3 °F /  2.4 °C 29.77 in /  1008 hPa West 7.0 mph /  11.3 km/h 12.0 mph /  19.3 km/h 77 % 0.00 in /  0 mm 0 W/m2
19:00 42.9 °F /  6.1 °C 36.2 °F /  2.3 °C 29.77 in /  1008 hPa WNW 7.0 mph /  11.3 km/h 8.0 mph /  12.9 km/h 77 % 0.00 in /  0 mm 0 W/m2
19:05 42.8 °F /  6 °C 36.1 °F /  2.3 °C 29.78 in /  1008.4 hPa WNW 6.0 mph /  9.7 km/h 8.0 mph /  12.9 km/h 77 % 0.00 in /  0 mm 0 W/m2
19:10 42.6 °F /  5.9 °C 36.2 °F /  2.3 °C 29.78 in /  1008.4 hPa NW 6.0 mph /  9.7 km/h 6.0 mph /  9.7 km/h 78 % 0.00 in /  0 mm 0 W/m2
19:20 42.4 °F /  5.8 °C 36.0 °F /  2.2 °C 29.78 in /  1008.4 hPa West 6.0 mph /  9.7 km/h 6.0 mph /  9.7 km/h 78 % 0.00 in /  0 mm 0 W/m2
19:25 42.3 °F /  5.7 °C 35.9 °F /  2.2 °C 29.78 in /  1008.4 hPa WNW 4.0 mph /  6.4 km/h 8.0 mph /  12.9 km/h 78 % 0.00 in /  0 mm 0 W/m2
19:35 42.0 °F /  5.6 °C 35.6 °F /  2 °C 29.79 in /  1008.7 hPa WNW 4.0 mph /  6.4 km/h 8.0 mph /  12.9 km/h 78 % 0.00 in /  0 mm 0 W/m2
19:40 41.8 °F /  5.4 °C 35.4 °F /  1.9 °C 29.79 in /  1008.7 hPa WNW 5.0 mph /  8 km/h 5.0 mph /  8 km/h 78 % 0.00 in /  0 mm 0 W/m2
19:45 41.6 °F /  5.3 °C 35.2 °F /  1.8 °C 29.79 in /  1008.7 hPa WNW 6.0 mph /  9.7 km/h 6.0 mph /  9.7 km/h 78 % 0.00 in /  0 mm 0 W/m2
19:55 41.4 °F /  5.2 °C 35.4 °F /  1.9 °C 29.79 in /  1008.7 hPa West 6.0 mph /  9.7 km/h 8.0 mph /  12.9 km/h 79 % 0.00 in /  0 mm 0 W/m2
20:00 41.4 °F /  5.2 °C 35.4 °F /  1.9 °C 29.79 in /  1008.7 hPa West 6.0 mph /  9.7 km/h 8.0 mph /  12.9 km/h 79 % 0.00 in /  0 mm 0 W/m2
20:05 41.2 °F /  5.1 °C 35.2 °F /  1.8 °C 29.79 in /  1008.7 hPa WNW 6.0 mph /  9.7 km/h 8.0 mph /  12.9 km/h 79 % 0.00 in /  0 mm 0 W/m2
20:10 41.0 °F /  5 °C 35.3 °F /  1.8 °C 29.80 in /  1009 hPa WNW 6.0 mph /  9.7 km/h 8.0 mph /  12.9 km/h 80 % 0.00 in /  0 mm 0 W/m2
20:15 40.9 °F /  4.9 °C 35.2 °F /  1.8 °C 29.80 in /  1009 hPa West 6.0 mph /  9.7 km/h 8.0 mph /  12.9 km/h 80 % 0.00 in /  0 mm 0 W/m2
20:25 40.7 °F /  4.8 °C 35.0 °F /  1.7 °C 29.81 in /  1009.4 hPa West 6.0 mph /  9.7 km/h 8.0 mph /  12.9 km/h 80 % 0.00 in /  0 mm 0 W/m2
20:30 40.5 °F /  4.7 °C 35.1 °F /  1.7 °C 29.81 in /  1009.4 hPa WNW 6.0 mph /  9.7 km/h 8.0 mph /  12.9 km/h 81 % 0.00 in /  0 mm 0 W/m2
20:40 40.5 °F /  4.7 °C 35.1 °F /  1.7 °C 29.81 in /  1009.4 hPa WNW 7.0 mph /  11.3 km/h 8.0 mph /  12.9 km/h 81 % 0.00 in /  0 mm 0 W/m2
20:45 40.5 °F /  4.7 °C 35.1 °F /  1.7 °C 29.81 in /  1009.4 hPa WNW 6.0 mph /  9.7 km/h 8.0 mph /  12.9 km/h 81 % 0.00 in /  0 mm 0 W/m2
20:50 40.5 °F /  4.7 °C 35.1 °F /  1.7 °C 29.81 in /  1009.4 hPa West 5.0 mph /  8 km/h 8.0 mph /  12.9 km/h 81 % 0.00 in /  0 mm 0 W/m2
21:00 40.3 °F /  4.6 °C 34.9 °F /  1.6 °C 29.82 in /  1009.7 hPa WNW 5.0 mph /  8 km/h 8.0 mph /  12.9 km/h 81 % 0.00 in /  0 mm 0 W/m2
21:05 40.2 °F /  4.6 °C 34.8 °F /  1.6 °C 29.82 in /  1009.7 hPa West 5.0 mph /  8 km/h 8.0 mph /  12.9 km/h 81 % 0.00 in /  0 mm 0 W/m2
21:10 40.1 °F /  4.5 °C 34.7 °F /  1.5 °C 29.82 in /  1009.7 hPa West 4.0 mph /  6.4 km/h 8.0 mph /  12.9 km/h 81 % 0.00 in /  0 mm 0 W/m2
21:15 40.0 °F /  4.4 °C 34.9 °F /  1.6 °C 29.82 in /  1009.7 hPa WNW 4.0 mph /  6.4 km/h 8.0 mph /  12.9 km/h 82 % 0.00 in /  0 mm 0 W/m2
21:20 39.9 °F /  4.4 °C 34.9 °F /  1.6 °C 29.82 in /  1009.7 hPa WNW 5.0 mph /  8 km/h 8.0 mph /  12.9 km/h 82 % 0.00 in /  0 mm 0 W/m2
21:25 39.8 °F /  4.3 °C 34.8 °F /  1.6 °C 29.83 in /  1010 hPa WNW 5.0 mph /  8 km/h 8.0 mph /  12.9 km/h 82 % 0.00 in /  0 mm 0 W/m2
21:35 39.5 °F /  4.2 °C 34.8 °F /  1.6 °C 29.83 in /  1010 hPa West 3.0 mph /  4.8 km/h 8.0 mph /  12.9 km/h 83 % 0.00 in /  0 mm 0 W/m2
21:40 39.3 °F /  4.1 °C 34.6 °F /  1.4 °C 29.83 in /  1010 hPa WNW 3.0 mph /  4.8 km/h 8.0 mph /  12.9 km/h 83 % 0.00 in /  0 mm 0 W/m2
21:45 39.2 °F /  4 °C 34.8 °F /  1.6 °C 29.83 in /  1010 hPa WNW 3.0 mph /  4.8 km/h 8.0 mph /  12.9 km/h 84 % 0.00 in /  0 mm 0 W/m2
21:50 39.2 °F /  4 °C 34.8 °F /  1.6 °C 29.84 in /  1010.4 hPa West 4.0 mph /  6.4 km/h 8.0 mph /  12.9 km/h 84 % 0.00 in /  0 mm 0 W/m2
21:55 39.4 °F /  4.1 °C 35.0 °F /  1.7 °C 29.84 in /  1010.4 hPa WNW 4.0 mph /  6.4 km/h 8.0 mph /  12.9 km/h 84 % 0.00 in /  0 mm 0 W/m2
22:05 39.6 °F /  4.2 °C 35.5 °F /  1.9 °C 29.84 in /  1010.4 hPa WNW 5.0 mph /  8 km/h 10.0 mph /  16.1 km/h 85 % 0.00 in /  0 mm 0 W/m2
22:10 39.8 °F /  4.3 °C 36.0 °F /  2.2 °C 29.84 in /  1010.4 hPa WNW 6.0 mph /  9.7 km/h 8.0 mph /  12.9 km/h 86 % 0.00 in /  0 mm 0 W/m2
22:15 40.0 °F /  4.4 °C 36.2 °F /  2.3 °C 29.84 in /  1010.4 hPa West 5.0 mph /  8 km/h 8.0 mph /  12.9 km/h 86 % 0.00 in /  0 mm 0 W/m2
22:20 40.1 °F /  4.5 °C 36.2 °F /  2.3 °C 29.85 in /  1010.7 hPa West 4.0 mph /  6.4 km/h 8.0 mph /  12.9 km/h 86 % 0.00 in /  0 mm 0 W/m2
22:25 40.0 °F /  4.4 °C 36.4 °F /  2.4 °C 29.85 in /  1010.7 hPa West 4.0 mph /  6.4 km/h 8.0 mph /  12.9 km/h 87 % 0.00 in /  0 mm 0 W/m2
22:30 40.0 °F /  4.4 °C 36.4 °F /  2.4 °C 29.85 in /  1010.7 hPa WNW 4.0 mph /  6.4 km/h 8.0 mph /  12.9 km/h 87 % 0.00 in /  0 mm 0 W/m2
22:40 40.0 °F /  4.4 °C 36.7 °F /  2.6 °C 29.85 in /  1010.7 hPa West 5.0 mph /  8 km/h 10.0 mph /  16.1 km/h 88 % 0.00 in /  0 mm 0 W/m2
22:45 40.1 °F /  4.5 °C 36.8 °F /  2.7 °C 29.85 in /  1010.7 hPa WNW 5.0 mph /  8 km/h 10.0 mph /  16.1 km/h 88 % 0.00 in /  0 mm 0 W/m2
22:50 40.1 °F /  4.5 °C 36.8 °F /  2.7 °C 29.86 in /  1011.1 hPa West 5.0 mph /  8 km/h 8.0 mph /  12.9 km/h 88 % 0.00 in /  0 mm 0 W/m2
22:55 40.2 °F /  4.6 °C 36.9 °F /  2.7 °C 29.85 in /  1010.7 hPa WNW 5.0 mph /  8 km/h 8.0 mph /  12.9 km/h 88 % 0.00 in /  0 mm 0 W/m2
23:00 40.2 °F /  4.6 °C 36.9 °F /  2.7 °C 29.86 in /  1011.1 hPa WNW 5.0 mph /  8 km/h 5.0 mph /  8 km/h 88 % 0.00 in /  0 mm 0 W/m2
23:05 40.3 °F /  4.6 °C 37.0 °F /  2.8 °C 29.86 in /  1011.1 hPa WNW 5.0 mph /  8 km/h 6.0 mph /  9.7 km/h 88 % 0.00 in /  0 mm 0 W/m2
23:15 40.7 °F /  4.8 °C 37.7 °F /  3.2 °C 29.86 in /  1011.1 hPa WNW 7.0 mph /  11.3 km/h 9.0 mph /  14.5 km/h 89 % 0.00 in /  0 mm 0 W/m2
23:20 40.9 °F /  4.9 °C 37.9 °F /  3.3 °C 29.86 in /  1011.1 hPa WNW 7.0 mph /  11.3 km/h 9.0 mph /  14.5 km/h 89 % 0.00 in /  0 mm 0 W/m2
23:25 41.1 °F /  5.1 °C 38.1 °F /  3.4 °C 29.86 in /  1011.1 hPa West 8.0 mph /  12.9 km/h 9.0 mph /  14.5 km/h 89 % 0.00 in /  0 mm 0 W/m2
23:30 41.2 °F /  5.1 °C 38.2 °F /  3.4 °C 29.86 in /  1011.1 hPa NW 9.0 mph /  14.5 km/h 11.0 mph /  17.7 km/h 89 % 0.00 in /  0 mm 0 W/m2
23:40 41.2 °F /  5.1 °C 37.9 °F /  3.3 °C 29.87 in /  1011.4 hPa WNW 10.0 mph /  16.1 km/h 10.0 mph /  16.1 km/h 88 % 0.00 in /  0 mm 0 W/m2
23:50 41.0 °F /  5 °C 37.7 °F /  3.2 °C 29.87 in /  1011.4 hPa NW 9.0 mph /  14.5 km/h 9.0 mph /  14.5 km/h 88 % 0.00 in /  0 mm 0 W/m2
23:55 40.9 °F /  4.9 °C 37.6 °F /  3.1 °C 29.88 in /  1011.7 hPa West 9.0 mph /  14.5 km/h 9.0 mph /  14.5 km/h 88 % 0.00 in /  0 mm 0 W/m2
Delerius-Weather
Compliments of Weather Underground - 2 mb

Data updates at regular intervals.